Observations for EAST MIDLANDS, United Kingdom (EGNX)

EGNX 180250Z 19006KT 9999 FEW036 03/02 Q1021
EGNX 180220Z 19004KT CAVOK 03/02 Q1021  
EGNX 180150Z 21006KT CAVOK 03/02 Q1021  
EGNX 180120Z 20006KT CAVOK 03/02 Q1021  
EGNX 180050Z 19007KT 9999 FEW039 03/02 Q1021
EGNX 180020Z 19007KT 9999 BKN040 04/02 Q1021
EGNX 172350Z 19008KT 9999 FEW045 05/03 Q1021
EGNX 172250Z 20007KT 9999 SCT042 05/03 Q1021
EGNX 172220Z 17005KT 130V190 9999 SCT044 06/03 Q1021
EGNX 172150Z 20006KT 170V230 9999 SCT041 06/03 Q1021
EGNX 172120Z 20007KT 9999 SCT045 06/03 Q1021
EGNX 172050Z 20008KT 9999 SCT044 05/03 Q1021
EGNX 172020Z 20007KT 9999 SCT044 05/03 Q1021
EGNX 171950Z 20009KT 9999 FEW046 05/03 Q1021
EGNX 171920Z 19008KT CAVOK 05/03 Q1021  
EGNX 171850Z 19005KT CAVOK 05/03 Q1021  
EGNX 171820Z 18006KT CAVOK 05/03 Q1021  
EGNX 171750Z 18006KT CAVOK 06/03 Q1021  
EGNX 171720Z 18006KT 9999 SCT045 06/03 Q1020
EGNX 171650Z 20006KT CAVOK 07/03 Q1020  
EGNX 171620Z 20009KT 9999 SCT044 08/03 Q1020
EGNX 171550Z 21008KT 9999 BKN044 09/04 Q1020
EGNX 171520Z 21010KT 9999 SCT022 08/04 Q1020
EGNX 171450Z 22008KT 9999 SCT019 08/04 Q1020
EGNX 171420Z 22010KT 9999 SCT018 08/04 Q1020
EGNX 171350Z 21011KT 9999 SCT015 BKN038 07/04 Q1020 
EGNX 171320Z 21012KT 9999 SCT015 BKN038 07/04 Q1021 
EGNX 171250Z 21012KT 9999 SCT013 BKN037 07/04 Q1021 
EGNX 171220Z 19011KT 9999 BKN031 06/04 Q1021
EGNX 171150Z 20010KT 9999 -RA BKN030 BKN044 06/04 Q1021 
EGNX 171120Z 19009KT 9999 SCT034 BKN040 05/03 Q1021 
EGNX 171050Z 21011KT 9999 -RA SCT029 BKN040 04/03 Q1020 
EGNX 171020Z 21011KT 9999 BKN040 05/03 Q1020
EGNX 170950Z 19010KT 9999 FEW030 BKN046 04/03 Q1020 
EGNX 170920Z 17009KT 9999 FEW028 04/02 Q1020
EGNX 170850Z 18009KT 9999 FEW025 04/02 Q1020
EGNX 170820Z 17005KT 140V200 9999 FEW034 04/02 Q1020
EGNX 170750Z 14006KT CAVOK 04/02 Q1020  
EGNX 170720Z 15006KT 130V210 9999 FEW010 03/02 Q1020
EGNX 170650Z 17008KT 9999 FEW009 03/02 Q1020
EGNX 170620Z 15004KT 130V220 CAVOK 03/02 Q1020  
EGNX 170550Z 15005KT 130V200 CAVOK 03/02 Q1019  
EGNX 170520Z 17007KT CAVOK 04/02 Q1019  
EGNX 170450Z 17008KT CAVOK 04/02 Q1020  
EGNX 170420Z 17007KT 130V190 CAVOK 03/02 Q1020  
EGNX 170350Z 19008KT CAVOK 03/02 Q1020  
EGNX 170320Z 19008KT CAVOK 03/02 Q1020  
EGNX 170250Z 19009KT CAVOK 03/02 Q1020  
EGNX 170220Z 19006KT 170V230 CAVOK 03/02 Q1021